sensor_id;sensor_type;location;lat;lon;timestamp;P1;durP1;ratioP1;P2;durP2;ratioP2
8488;SDS011;4281;45.772;12.852;2022-08-18T00:01:22;22.03;;;19.90;;
8488;SDS011;4281;45.772;12.852;2022-08-18T00:03:54;24.07;;;20.90;;
8488;SDS011;4281;45.772;12.852;2022-08-18T00:06:30;20.77;;;18.70;;
8488;SDS011;4281;45.772;12.852;2022-08-18T00:08:59;21.13;;;19.33;;
8488;SDS011;4281;45.772;12.852;2022-08-18T00:11:31;22.57;;;20.33;;
8488;SDS011;4281;45.772;12.852;2022-08-18T00:14:08;21.10;;;19.03;;
8488;SDS011;4281;45.772;12.852;2022-08-18T00:16:48;19.80;;;18.00;;
8488;SDS011;4281;45.772;12.852;2022-08-18T00:19:18;20.07;;;17.07;;
8488;SDS011;4281;45.772;12.852;2022-08-18T00:22:09;22.27;;;19.97;;
8488;SDS011;4281;45.772;12.852;2022-08-18T00:24:41;20.03;;;18.23;;
8488;SDS011;4281;45.772;12.852;2022-08-18T00:27:15;21.87;;;19.50;;
8488;SDS011;4281;45.772;12.852;2022-08-18T00:29:48;19.70;;;17.83;;
8488;SDS011;4281;45.772;12.852;2022-08-18T00:32:18;19.00;;;17.40;;
8488;SDS011;4281;45.772;12.852;2022-08-18T00:34:48;19.13;;;17.33;;
8488;SDS011;4281;45.772;12.852;2022-08-18T00:37:18;20.47;;;18.57;;
8488;SDS011;4281;45.772;12.852;2022-08-18T00:39:48;19.03;;;17.07;;
8488;SDS011;4281;45.772;12.852;2022-08-18T00:42:19;19.67;;;17.87;;
8488;SDS011;4281;45.772;12.852;2022-08-18T00:44:55;16.03;;;14.53;;
8488;SDS011;4281;45.772;12.852;2022-08-18T00:47:26;19.43;;;17.60;;
8488;SDS011;4281;45.772;12.852;2022-08-18T00:50:08;20.53;;;18.43;;
8488;SDS011;4281;45.772;12.852;2022-08-18T00:52:41;19.47;;;17.67;;
8488;SDS011;4281;45.772;12.852;2022-08-18T00:55:12;20.17;;;18.40;;
8488;SDS011;4281;45.772;12.852;2022-08-18T00:57:43;16.93;;;15.40;;
8488;SDS011;4281;45.772;12.852;2022-08-18T01:00:15;16.13;;;14.63;;
8488;SDS011;4281;45.772;12.852;2022-08-18T01:02:45;17.70;;;16.00;;
8488;SDS011;4281;45.772;12.852;2022-08-18T01:05:20;18.47;;;16.77;;
8488;SDS011;4281;45.772;12.852;2022-08-18T01:07:54;17.93;;;16.30;;
8488;SDS011;4281;45.772;12.852;2022-08-18T01:10:23;17.40;;;15.70;;
8488;SDS011;4281;45.772;12.852;2022-08-18T01:12:52;17.57;;;15.83;;
8488;SDS011;4281;45.772;12.852;2022-08-18T01:15:22;17.33;;;15.70;;
8488;SDS011;4281;45.772;12.852;2022-08-18T01:17:56;15.47;;;14.00;;
8488;SDS011;4281;45.772;12.852;2022-08-18T01:20:44;16.33;;;14.93;;
8488;SDS011;4281;45.772;12.852;2022-08-18T01:23:44;16.67;;;15.07;;
8488;SDS011;4281;45.772;12.852;2022-08-18T01:28:45;16.90;;;14.43;;
8488;SDS011;4281;45.772;12.852;2022-08-18T01:31:28;15.67;;;14.27;;
8488;SDS011;4281;45.772;12.852;2022-08-18T01:34:00;15.13;;;13.73;;
8488;SDS011;4281;45.772;12.852;2022-08-18T01:36:28;15.07;;;13.70;;
8488;SDS011;4281;45.772;12.852;2022-08-18T01:39:02;17.37;;;15.67;;
8488;SDS011;4281;45.772;12.852;2022-08-18T01:41:32;14.83;;;13.53;;
8488;SDS011;4281;45.772;12.852;2022-08-18T01:44:00;16.93;;;14.43;;
8488;SDS011;4281;45.772;12.852;2022-08-18T01:46:31;15.17;;;13.77;;
8488;SDS011;4281;45.772;12.852;2022-08-18T01:49:01;15.27;;;13.87;;
8488;SDS011;4281;45.772;12.852;2022-08-18T01:51:31;15.40;;;13.50;;
8488;SDS011;4281;45.772;12.852;2022-08-18T01:54:08;14.97;;;13.43;;
8488;SDS011;4281;45.772;12.852;2022-08-18T01:56:38;16.53;;;14.97;;
8488;SDS011;4281;45.772;12.852;2022-08-18T01:59:09;14.73;;;13.33;;
8488;SDS011;4281;45.772;12.852;2022-08-18T02:01:41;14.93;;;13.40;;
8488;SDS011;4281;45.772;12.852;2022-08-18T02:04:18;14.70;;;13.37;;
8488;SDS011;4281;45.772;12.852;2022-08-18T02:07:07;19.10;;;17.23;;
8488;SDS011;4281;45.772;12.852;2022-08-18T02:09:38;18.10;;;16.40;;
8488;SDS011;4281;45.772;12.852;2022-08-18T02:12:09;17.53;;;15.77;;
8488;SDS011;4281;45.772;12.852;2022-08-18T02:14:37;18.60;;;16.83;;
8488;SDS011;4281;45.772;12.852;2022-08-18T02:17:07;18.50;;;16.63;;
8488;SDS011;4281;45.772;12.852;2022-08-18T02:19:38;19.07;;;17.37;;
8488;SDS011;4281;45.772;12.852;2022-08-18T02:22:10;18.97;;;17.23;;
8488;SDS011;4281;45.772;12.852;2022-08-18T02:24:42;21.93;;;20.03;;
8488;SDS011;4281;45.772;12.852;2022-08-18T02:27:11;23.00;;;20.77;;
8488;SDS011;4281;45.772;12.852;2022-08-18T02:29:41;20.93;;;19.13;;
8488;SDS011;4281;45.772;12.852;2022-08-18T02:32:09;23.00;;;21.00;;
8488;SDS011;4281;45.772;12.852;2022-08-18T02:34:38;21.70;;;19.53;;
8488;SDS011;4281;45.772;12.852;2022-08-18T02:37:08;22.77;;;20.77;;
8488;SDS011;4281;45.772;12.852;2022-08-18T02:39:42;22.77;;;20.77;;
8488;SDS011;4281;45.772;12.852;2022-08-18T02:42:11;25.57;;;23.17;;
8488;SDS011;4281;45.772;12.852;2022-08-18T02:44:40;23.00;;;20.90;;
8488;SDS011;4281;45.772;12.852;2022-08-18T02:47:08;23.13;;;21.03;;
8488;SDS011;4281;45.772;12.852;2022-08-18T02:49:37;24.43;;;22.13;;
8488;SDS011;4281;45.772;12.852;2022-08-18T02:52:06;22.80;;;20.87;;
8488;SDS011;4281;45.772;12.852;2022-08-18T02:54:35;24.70;;;22.40;;
8488;SDS011;4281;45.772;12.852;2022-08-18T02:57:06;24.73;;;22.47;;
8488;SDS011;4281;45.772;12.852;2022-08-18T02:59:36;24.50;;;22.10;;
8488;SDS011;4281;45.772;12.852;2022-08-18T03:02:06;28.60;;;25.97;;
8488;SDS011;4281;45.772;12.852;2022-08-18T03:04:36;25.23;;;23.03;;
8488;SDS011;4281;45.772;12.852;2022-08-18T03:07:05;25.43;;;22.93;;
8488;SDS011;4281;45.772;12.852;2022-08-18T03:09:34;27.27;;;24.77;;
8488;SDS011;4281;45.772;12.852;2022-08-18T03:12:04;26.37;;;23.77;;
8488;SDS011;4281;45.772;12.852;2022-08-18T03:14:35;24.70;;;22.30;;
8488;SDS011;4281;45.772;12.852;2022-08-18T03:17:06;25.23;;;23.10;;
8488;SDS011;4281;45.772;12.852;2022-08-18T03:19:35;25.63;;;23.20;;
8488;SDS011;4281;45.772;12.852;2022-08-18T03:22:04;25.40;;;23.03;;
8488;SDS011;4281;45.772;12.852;2022-08-18T03:24:54;24.97;;;22.67;;
8488;SDS011;4281;45.772;12.852;2022-08-18T03:27:24;23.50;;;21.27;;
8488;SDS011;4281;45.772;12.852;2022-08-18T03:29:53;22.97;;;20.87;;
8488;SDS011;4281;45.772;12.852;2022-08-18T03:32:24;23.60;;;21.27;;
8488;SDS011;4281;45.772;12.852;2022-08-18T03:34:52;19.90;;;17.97;;
8488;SDS011;4281;45.772;12.852;2022-08-18T03:37:20;20.33;;;18.73;;
8488;SDS011;4281;45.772;12.852;2022-08-18T03:39:50;19.30;;;17.43;;
8488;SDS011;4281;45.772;12.852;2022-08-18T03:42:18;17.87;;;16.17;;
8488;SDS011;4281;45.772;12.852;2022-08-18T03:44:48;19.00;;;17.17;;
8488;SDS011;4281;45.772;12.852;2022-08-18T03:47:17;17.70;;;16.10;;
8488;SDS011;4281;45.772;12.852;2022-08-18T03:49:46;17.23;;;15.40;;
8488;SDS011;4281;45.772;12.852;2022-08-18T03:52:15;16.20;;;14.50;;
8488;SDS011;4281;45.772;12.852;2022-08-18T03:54:43;16.43;;;14.83;;
8488;SDS011;4281;45.772;12.852;2022-08-18T03:57:12;17.03;;;15.43;;
8488;SDS011;4281;45.772;12.852;2022-08-18T03:59:40;15.67;;;14.07;;
8488;SDS011;4281;45.772;12.852;2022-08-18T04:02:10;14.33;;;12.93;;
8488;SDS011;4281;45.772;12.852;2022-08-18T04:04:40;14.17;;;12.70;;
8488;SDS011;4281;45.772;12.852;2022-08-18T04:07:09;13.17;;;11.90;;
8488;SDS011;4281;45.772;12.852;2022-08-18T04:09:42;13.10;;;11.73;;
8488;SDS011;4281;45.772;12.852;2022-08-18T04:12:13;14.30;;;12.90;;
8488;SDS011;4281;45.772;12.852;2022-08-18T04:14:43;13.70;;;12.10;;
8488;SDS011;4281;45.772;12.852;2022-08-18T04:17:16;12.77;;;11.47;;
8488;SDS011;4281;45.772;12.852;2022-08-18T04:19:48;13.37;;;11.97;;
8488;SDS011;4281;45.772;12.852;2022-08-18T04:22:17;12.57;;;11.47;;
8488;SDS011;4281;45.772;12.852;2022-08-18T04:24:45;12.83;;;11.53;;
8488;SDS011;4281;45.772;12.852;2022-08-18T04:27:16;12.27;;;11.17;;
8488;SDS011;4281;45.772;12.852;2022-08-18T04:29:45;12.23;;;11.00;;
8488;SDS011;4281;45.772;12.852;2022-08-18T04:32:15;12.93;;;11.60;;
8488;SDS011;4281;45.772;12.852;2022-08-18T04:34:44;14.43;;;11.77;;
8488;SDS011;4281;45.772;12.852;2022-08-18T04:37:13;12.77;;;11.27;;
8488;SDS011;4281;45.772;12.852;2022-08-18T04:39:43;10.90;;;9.83;;
8488;SDS011;4281;45.772;12.852;2022-08-18T04:42:12;11.80;;;10.33;;
8488;SDS011;4281;45.772;12.852;2022-08-18T04:44:41;11.53;;;10.43;;
8488;SDS011;4281;45.772;12.852;2022-08-18T04:47:10;12.10;;;10.83;;
8488;SDS011;4281;45.772;12.852;2022-08-18T04:49:41;12.53;;;10.80;;
8488;SDS011;4281;45.772;12.852;2022-08-18T04:52:10;12.83;;;11.60;;
8488;SDS011;4281;45.772;12.852;2022-08-18T04:55:06;12.80;;;11.50;;
8488;SDS011;4281;45.772;12.852;2022-08-18T04:57:35;14.17;;;10.70;;
8488;SDS011;4281;45.772;12.852;2022-08-18T05:00:04;12.20;;;10.37;;
8488;SDS011;4281;45.772;12.852;2022-08-18T05:02:34;12.77;;;9.97;;
8488;SDS011;4281;45.772;12.852;2022-08-18T05:05:04;10.40;;;9.43;;
8488;SDS011;4281;45.772;12.852;2022-08-18T05:07:33;11.33;;;10.17;;
8488;SDS011;4281;45.772;12.852;2022-08-18T05:10:02;13.63;;;9.20;;
8488;SDS011;4281;45.772;12.852;2022-08-18T05:12:31;11.73;;;10.13;;
8488;SDS011;4281;45.772;12.852;2022-08-18T05:14:59;10.87;;;9.73;;
8488;SDS011;4281;45.772;12.852;2022-08-18T05:17:28;11.50;;;10.40;;
8488;SDS011;4281;45.772;12.852;2022-08-18T05:19:57;11.63;;;10.50;;
8488;SDS011;4281;45.772;12.852;2022-08-18T05:22:28;12.40;;;11.23;;
8488;SDS011;4281;45.772;12.852;2022-08-18T05:24:57;13.30;;;11.77;;
8488;SDS011;4281;45.772;12.852;2022-08-18T05:27:30;13.93;;;12.37;;
8488;SDS011;4281;45.772;12.852;2022-08-18T05:29:59;13.30;;;11.90;;
8488;SDS011;4281;45.772;12.852;2022-08-18T05:32:28;14.07;;;12.67;;
8488;SDS011;4281;45.772;12.852;2022-08-18T05:35:15;14.23;;;13.03;;
8488;SDS011;4281;45.772;12.852;2022-08-18T05:37:58;14.70;;;13.20;;
8488;SDS011;4281;45.772;12.852;2022-08-18T05:40:37;15.57;;;14.03;;
8488;SDS011;4281;45.772;12.852;2022-08-18T05:43:05;15.27;;;13.77;;
8488;SDS011;4281;45.772;12.852;2022-08-18T05:45:36;16.13;;;14.53;;
8488;SDS011;4281;45.772;12.852;2022-08-18T05:48:07;17.90;;;15.97;;
8488;SDS011;4281;45.772;12.852;2022-08-18T05:50:35;15.77;;;14.17;;
8488;SDS011;4281;45.772;12.852;2022-08-18T05:53:06;15.77;;;14.30;;
8488;SDS011;4281;45.772;12.852;2022-08-18T05:55:42;16.70;;;14.27;;
8488;SDS011;4281;45.772;12.852;2022-08-18T05:58:34;16.93;;;13.87;;
8488;SDS011;4281;45.772;12.852;2022-08-18T06:01:06;16.03;;;14.43;;
8488;SDS011;4281;45.772;12.852;2022-08-18T06:03:42;14.87;;;13.43;;
8488;SDS011;4281;45.772;12.852;2022-08-18T06:06:16;14.40;;;12.90;;
8488;SDS011;4281;45.772;12.852;2022-08-18T06:08:49;16.13;;;14.37;;
8488;SDS011;4281;45.772;12.852;2022-08-18T06:11:39;16.53;;;14.83;;
8488;SDS011;4281;45.772;12.852;2022-08-18T06:14:09;15.37;;;13.47;;
8488;SDS011;4281;45.772;12.852;2022-08-18T06:16:42;16.63;;;14.37;;
8488;SDS011;4281;45.772;12.852;2022-08-18T06:19:24;15.20;;;13.73;;
8488;SDS011;4281;45.772;12.852;2022-08-18T06:22:01;13.83;;;12.53;;
8488;SDS011;4281;45.772;12.852;2022-08-18T06:24:43;13.70;;;12.47;;
8488;SDS011;4281;45.772;12.852;2022-08-18T06:27:20;13.67;;;12.47;;
8488;SDS011;4281;45.772;12.852;2022-08-18T06:30:00;13.67;;;12.20;;
8488;SDS011;4281;45.772;12.852;2022-08-18T06:32:38;13.10;;;11.80;;
8488;SDS011;4281;45.772;12.852;2022-08-18T06:35:15;10.70;;;9.60;;
8488;SDS011;4281;45.772;12.852;2022-08-18T06:37:49;11.37;;;10.20;;
8488;SDS011;4281;45.772;12.852;2022-08-18T06:40:42;11.63;;;10.53;;
8488;SDS011;4281;45.772;12.852;2022-08-18T06:43:13;11.13;;;9.97;;
8488;SDS011;4281;45.772;12.852;2022-08-18T06:45:45;9.90;;;9.07;;
8488;SDS011;4281;45.772;12.852;2022-08-18T06:48:20;10.97;;;9.87;;
8488;SDS011;4281;45.772;12.852;2022-08-18T06:50:55;10.67;;;9.77;;
8488;SDS011;4281;45.772;12.852;2022-08-18T06:56:24;9.50;;;8.70;;
8488;SDS011;4281;45.772;12.852;2022-08-18T06:59:13;11.90;;;9.17;;
8488;SDS011;4281;45.772;12.852;2022-08-18T07:01:50;10.33;;;9.33;;
8488;SDS011;4281;45.772;12.852;2022-08-18T07:04:35;11.83;;;8.60;;
8488;SDS011;4281;45.772;12.852;2022-08-18T07:07:14;10.83;;;9.87;;
8488;SDS011;4281;45.772;12.852;2022-08-18T07:09:46;10.00;;;9.00;;
8488;SDS011;4281;45.772;12.852;2022-08-18T07:12:21;8.90;;;8.10;;
8488;SDS011;4281;45.772;12.852;2022-08-18T07:14:58;10.43;;;9.33;;
8488;SDS011;4281;45.772;12.852;2022-08-18T07:17:30;9.50;;;8.70;;
8488;SDS011;4281;45.772;12.852;2022-08-18T07:20:16;9.13;;;8.27;;
8488;SDS011;4281;45.772;12.852;2022-08-18T07:22:50;10.80;;;9.13;;
8488;SDS011;4281;45.772;12.852;2022-08-18T07:25:21;9.20;;;8.27;;
8488;SDS011;4281;45.772;12.852;2022-08-18T07:27:54;11.47;;;9.30;;
8488;SDS011;4281;45.772;12.852;2022-08-18T07:30:27;10.07;;;9.07;;
8488;SDS011;4281;45.772;12.852;2022-08-18T07:32:59;8.77;;;8.07;;
8488;SDS011;4281;45.772;12.852;2022-08-18T07:35:37;9.50;;;8.50;;
8488;SDS011;4281;45.772;12.852;2022-08-18T07:38:12;8.60;;;7.80;;
8488;SDS011;4281;45.772;12.852;2022-08-18T07:41:08;9.00;;;8.20;;
8488;SDS011;4281;45.772;12.852;2022-08-18T07:43:45;8.77;;;7.97;;
8488;SDS011;4281;45.772;12.852;2022-08-18T07:46:25;8.37;;;7.50;;
8488;SDS011;4281;45.772;12.852;2022-08-18T07:49:01;9.70;;;7.33;;
8488;SDS011;4281;45.772;12.852;2022-08-18T07:51:33;7.50;;;6.80;;
8488;SDS011;4281;45.772;12.852;2022-08-18T07:54:21;7.33;;;6.63;;
8488;SDS011;4281;45.772;12.852;2022-08-18T07:57:19;8.10;;;7.30;;
8488;SDS011;4281;45.772;12.852;2022-08-18T07:59:56;7.27;;;6.67;;
8488;SDS011;4281;45.772;12.852;2022-08-18T08:02:49;6.67;;;6.00;;
8488;SDS011;4281;45.772;12.852;2022-08-18T08:05:33;7.00;;;6.40;;
8488;SDS011;4281;45.772;12.852;2022-08-18T08:08:10;7.37;;;6.60;;
8488;SDS011;4281;45.772;12.852;2022-08-18T08:10:55;8.17;;;6.73;;
8488;SDS011;4281;45.772;12.852;2022-08-18T08:13:35;8.13;;;6.20;;
8488;SDS011;4281;45.772;12.852;2022-08-18T08:16:27;6.63;;;5.93;;
8488;SDS011;4281;45.772;12.852;2022-08-18T08:19:09;7.57;;;6.00;;
8488;SDS011;4281;45.772;12.852;2022-08-18T08:22:18;7.17;;;5.67;;
8488;SDS011;4281;45.772;12.852;2022-08-18T08:24:52;9.73;;;6.13;;
8488;SDS011;4281;45.772;12.852;2022-08-18T08:27:30;6.67;;;6.03;;
8488;SDS011;4281;45.772;12.852;2022-08-18T08:30:10;6.27;;;5.60;;
8488;SDS011;4281;45.772;12.852;2022-08-18T08:32:55;6.03;;;5.20;;
8488;SDS011;4281;45.772;12.852;2022-08-18T08:35:34;7.83;;;5.13;;
8488;SDS011;4281;45.772;12.852;2022-08-18T08:38:17;7.67;;;5.33;;
8488;SDS011;4281;45.772;12.852;2022-08-18T08:41:07;7.63;;;5.33;;
8488;SDS011;4281;45.772;12.852;2022-08-18T08:43:39;7.57;;;6.00;;
8488;SDS011;4281;45.772;12.852;2022-08-18T08:46:12;8.10;;;5.60;;
8488;SDS011;4281;45.772;12.852;2022-08-18T08:48:48;7.60;;;4.67;;
8488;SDS011;4281;45.772;12.852;2022-08-18T08:51:27;6.47;;;4.73;;
8488;SDS011;4281;45.772;12.852;2022-08-18T08:54:03;7.83;;;5.10;;
8488;SDS011;4281;45.772;12.852;2022-08-18T08:56:39;16.03;;;5.17;;
8488;SDS011;4281;45.772;12.852;2022-08-18T08:59:12;9.37;;;5.13;;
8488;SDS011;4281;45.772;12.852;2022-08-18T09:01:44;7.10;;;4.47;;
8488;SDS011;4281;45.772;12.852;2022-08-18T09:04:24;8.33;;;5.30;;
8488;SDS011;4281;45.772;12.852;2022-08-18T09:07:23;7.57;;;4.93;;
8488;SDS011;4281;45.772;12.852;2022-08-18T09:12:45;5.80;;;4.83;;
8488;SDS011;4281;45.772;12.852;2022-08-18T09:15:32;8.00;;;4.30;;
8488;SDS011;4281;45.772;12.852;2022-08-18T09:18:14;7.73;;;4.63;;
8488;SDS011;4281;45.772;12.852;2022-08-18T09:21:03;7.27;;;5.07;;
8488;SDS011;4281;45.772;12.852;2022-08-18T09:23:44;6.43;;;5.10;;
8488;SDS011;4281;45.772;12.852;2022-08-18T09:26:22;6.33;;;4.50;;
8488;SDS011;4281;45.772;12.852;2022-08-18T09:28:56;8.13;;;6.20;;
8488;SDS011;4281;45.772;12.852;2022-08-18T09:31:26;7.60;;;5.23;;
8488;SDS011;4281;45.772;12.852;2022-08-18T09:34:03;10.23;;;5.20;;
8488;SDS011;4281;45.772;12.852;2022-08-18T09:36:57;6.67;;;4.97;;
8488;SDS011;4281;45.772;12.852;2022-08-18T09:39:36;7.97;;;5.23;;
8488;SDS011;4281;45.772;12.852;2022-08-18T09:42:39;5.70;;;4.73;;
8488;SDS011;4281;45.772;12.852;2022-08-18T09:48:29;5.87;;;4.57;;
8488;SDS011;4281;45.772;12.852;2022-08-18T09:54:07;6.40;;;4.43;;
8488;SDS011;4281;45.772;12.852;2022-08-18T09:59:49;6.77;;;5.03;;
8488;SDS011;4281;45.772;12.852;2022-08-18T10:06:12;6.27;;;4.70;;
8488;SDS011;4281;45.772;12.852;2022-08-18T10:12:09;5.87;;;4.73;;
8488;SDS011;4281;45.772;12.852;2022-08-18T10:20:58;7.33;;;5.10;;
8488;SDS011;4281;45.772;12.852;2022-08-18T10:23:41;5.57;;;4.73;;
8488;SDS011;4281;45.772;12.852;2022-08-18T10:29:43;5.93;;;4.53;;
8488;SDS011;4281;45.772;12.852;2022-08-18T10:38:25;6.10;;;5.40;;
8488;SDS011;4281;45.772;12.852;2022-08-18T10:41:21;7.53;;;5.43;;
8488;SDS011;4281;45.772;12.852;2022-08-18T10:43:57;5.57;;;5.03;;
8488;SDS011;4281;45.772;12.852;2022-08-18T10:46:48;7.07;;;5.40;;
8488;SDS011;4281;45.772;12.852;2022-08-18T10:49:20;8.20;;;5.53;;
8488;SDS011;4281;45.772;12.852;2022-08-18T10:51:56;8.53;;;5.37;;
8488;SDS011;4281;45.772;12.852;2022-08-18T10:54:35;9.97;;;7.17;;
8488;SDS011;4281;45.772;12.852;2022-08-18T10:57:27;7.33;;;4.30;;
8488;SDS011;4281;45.772;12.852;2022-08-18T11:00:05;8.37;;;4.77;;
8488;SDS011;4281;45.772;12.852;2022-08-18T11:02:45;9.30;;;4.80;;
8488;SDS011;4281;45.772;12.852;2022-08-18T11:05:43;9.77;;;4.10;;
8488;SDS011;4281;45.772;12.852;2022-08-18T11:08:13;8.20;;;4.23;;
8488;SDS011;4281;45.772;12.852;2022-08-18T11:10:46;10.47;;;3.90;;
8488;SDS011;4281;45.772;12.852;2022-08-18T11:13:38;8.60;;;3.70;;
8488;SDS011;4281;45.772;12.852;2022-08-18T11:16:22;12.27;;;3.67;;
8488;SDS011;4281;45.772;12.852;2022-08-18T11:19:07;9.03;;;3.47;;
8488;SDS011;4281;45.772;12.852;2022-08-18T11:21:40;12.90;;;4.03;;
8488;SDS011;4281;45.772;12.852;2022-08-18T11:24:11;16.97;;;4.53;;
8488;SDS011;4281;45.772;12.852;2022-08-18T11:26:46;14.63;;;4.17;;
8488;SDS011;4281;45.772;12.852;2022-08-18T11:29:47;9.43;;;2.60;;
8488;SDS011;4281;45.772;12.852;2022-08-18T11:32:19;8.77;;;2.60;;
8488;SDS011;4281;45.772;12.852;2022-08-18T11:34:51;8.10;;;3.50;;
8488;SDS011;4281;45.772;12.852;2022-08-18T11:37:31;8.80;;;2.70;;
8488;SDS011;4281;45.772;12.852;2022-08-18T11:40:24;10.53;;;2.60;;
8488;SDS011;4281;45.772;12.852;2022-08-18T11:43:22;8.27;;;2.80;;
8488;SDS011;4281;45.772;12.852;2022-08-18T11:46:10;4.83;;;2.10;;
8488;SDS011;4281;45.772;12.852;2022-08-18T11:48:48;9.87;;;2.00;;
8488;SDS011;4281;45.772;12.852;2022-08-18T11:51:20;7.43;;;1.77;;
8488;SDS011;4281;45.772;12.852;2022-08-18T11:53:53;3.83;;;1.47;;
8488;SDS011;4281;45.772;12.852;2022-08-18T11:56:43;7.47;;;1.70;;
8488;SDS011;4281;45.772;12.852;2022-08-18T11:59:30;7.10;;;2.03;;
8488;SDS011;4281;45.772;12.852;2022-08-18T12:02:18;8.30;;;1.97;;
8488;SDS011;4281;45.772;12.852;2022-08-18T12:04:53;8.00;;;1.73;;
8488;SDS011;4281;45.772;12.852;2022-08-18T12:07:34;6.10;;;2.00;;
8488;SDS011;4281;45.772;12.852;2022-08-18T12:10:13;7.83;;;2.10;;
8488;SDS011;4281;45.772;12.852;2022-08-18T12:13:06;4.30;;;1.47;;
8488;SDS011;4281;45.772;12.852;2022-08-18T12:15:35;6.70;;;2.00;;
8488;SDS011;4281;45.772;12.852;2022-08-18T12:18:12;8.83;;;1.93;;
8488;SDS011;4281;45.772;12.852;2022-08-18T12:20:56;4.57;;;1.60;;
8488;SDS011;4281;45.772;12.852;2022-08-18T12:23:45;4.40;;;1.70;;
8488;SDS011;4281;45.772;12.852;2022-08-18T12:26:17;6.30;;;2.17;;
8488;SDS011;4281;45.772;12.852;2022-08-18T12:29:04;6.13;;;2.10;;
8488;SDS011;4281;45.772;12.852;2022-08-18T12:31:36;8.60;;;2.33;;
8488;SDS011;4281;45.772;12.852;2022-08-18T12:34:13;4.37;;;1.80;;
8488;SDS011;4281;45.772;12.852;2022-08-18T12:36:44;8.40;;;2.13;;
8488;SDS011;4281;45.772;12.852;2022-08-18T12:39:13;11.00;;;3.17;;
8488;SDS011;4281;45.772;12.852;2022-08-18T12:41:41;11.93;;;3.80;;
8488;SDS011;4281;45.772;12.852;2022-08-18T12:44:10;11.43;;;3.30;;
8488;SDS011;4281;45.772;12.852;2022-08-18T12:46:39;10.17;;;3.10;;
8488;SDS011;4281;45.772;12.852;2022-08-18T12:49:09;14.50;;;3.60;;
8488;SDS011;4281;45.772;12.852;2022-08-18T12:51:45;11.37;;;3.50;;
8488;SDS011;4281;45.772;12.852;2022-08-18T12:54:16;12.37;;;3.30;;
8488;SDS011;4281;45.772;12.852;2022-08-18T12:56:46;12.50;;;3.40;;
8488;SDS011;4281;45.772;12.852;2022-08-18T12:59:17;11.20;;;3.40;;
8488;SDS011;4281;45.772;12.852;2022-08-18T13:01:49;11.10;;;3.33;;
8488;SDS011;4281;45.772;12.852;2022-08-18T13:04:25;8.43;;;2.73;;
8488;SDS011;4281;45.772;12.852;2022-08-18T13:06:57;7.87;;;2.40;;
8488;SDS011;4281;45.772;12.852;2022-08-18T13:09:32;6.70;;;2.27;;
8488;SDS011;4281;45.772;12.852;2022-08-18T13:12:19;6.70;;;2.43;;
8488;SDS011;4281;45.772;12.852;2022-08-18T13:14:49;6.97;;;2.47;;
8488;SDS011;4281;45.772;12.852;2022-08-18T13:17:20;9.10;;;2.37;;
8488;SDS011;4281;45.772;12.852;2022-08-18T13:19:58;8.93;;;2.77;;
8488;SDS011;4281;45.772;12.852;2022-08-18T13:22:29;4.73;;;2.00;;
8488;SDS011;4281;45.772;12.852;2022-08-18T13:24:59;5.00;;;2.17;;
8488;SDS011;4281;45.772;12.852;2022-08-18T13:27:29;5.23;;;2.37;;
8488;SDS011;4281;45.772;12.852;2022-08-18T13:30:03;5.30;;;2.13;;
8488;SDS011;4281;45.772;12.852;2022-08-18T13:32:54;5.13;;;2.40;;
8488;SDS011;4281;45.772;12.852;2022-08-18T13:35:25;8.20;;;2.20;;
8488;SDS011;4281;45.772;12.852;2022-08-18T13:38:05;6.03;;;2.60;;
8488;SDS011;4281;45.772;12.852;2022-08-18T13:40:44;6.17;;;2.80;;
8488;SDS011;4281;45.772;12.852;2022-08-18T13:43:14;7.13;;;2.67;;
8488;SDS011;4281;45.772;12.852;2022-08-18T13:45:44;6.13;;;2.43;;
8488;SDS011;4281;45.772;12.852;2022-08-18T13:48:21;6.13;;;2.80;;
8488;SDS011;4281;45.772;12.852;2022-08-18T13:50:52;6.67;;;2.40;;
8488;SDS011;4281;45.772;12.852;2022-08-18T13:53:26;6.87;;;2.17;;
8488;SDS011;4281;45.772;12.852;2022-08-18T13:55:57;4.50;;;2.30;;
8488;SDS011;4281;45.772;12.852;2022-08-18T13:58:25;5.80;;;2.43;;
8488;SDS011;4281;45.772;12.852;2022-08-18T14:00:56;5.67;;;2.33;;
8488;SDS011;4281;45.772;12.852;2022-08-18T14:03:46;7.97;;;2.27;;
8488;SDS011;4281;45.772;12.852;2022-08-18T14:06:15;7.27;;;2.60;;
8488;SDS011;4281;45.772;12.852;2022-08-18T14:08:51;7.30;;;2.63;;
8488;SDS011;4281;45.772;12.852;2022-08-18T14:11:21;6.33;;;2.13;;
8488;SDS011;4281;45.772;12.852;2022-08-18T14:13:59;8.20;;;2.60;;
8488;SDS011;4281;45.772;12.852;2022-08-18T14:16:29;5.60;;;2.27;;
8488;SDS011;4281;45.772;12.852;2022-08-18T14:19:00;5.93;;;1.90;;
8488;SDS011;4281;45.772;12.852;2022-08-18T14:21:48;7.40;;;2.33;;
8488;SDS011;4281;45.772;12.852;2022-08-18T14:24:38;7.87;;;2.60;;
8488;SDS011;4281;45.772;12.852;2022-08-18T14:27:26;6.53;;;2.87;;
8488;SDS011;4281;45.772;12.852;2022-08-18T14:30:01;6.10;;;2.50;;
8488;SDS011;4281;45.772;12.852;2022-08-18T14:32:32;5.40;;;2.27;;
8488;SDS011;4281;45.772;12.852;2022-08-18T14:35:02;6.83;;;2.53;;
8488;SDS011;4281;45.772;12.852;2022-08-18T14:37:53;8.63;;;2.13;;
8488;SDS011;4281;45.772;12.852;2022-08-18T14:40:23;4.57;;;2.03;;
8488;SDS011;4281;45.772;12.852;2022-08-18T14:42:52;6.80;;;2.27;;
8488;SDS011;4281;45.772;12.852;2022-08-18T14:45:21;5.40;;;2.03;;
8488;SDS011;4281;45.772;12.852;2022-08-18T14:48:00;7.57;;;2.20;;
8488;SDS011;4281;45.772;12.852;2022-08-18T14:50:33;7.47;;;2.00;;
8488;SDS011;4281;45.772;12.852;2022-08-18T14:53:02;6.13;;;1.80;;
8488;SDS011;4281;45.772;12.852;2022-08-18T14:55:33;5.87;;;2.20;;
8488;SDS011;4281;45.772;12.852;2022-08-18T14:58:03;6.90;;;2.13;;
8488;SDS011;4281;45.772;12.852;2022-08-18T15:00:32;10.03;;;2.10;;
8488;SDS011;4281;45.772;12.852;2022-08-18T15:03:19;5.87;;;2.20;;
8488;SDS011;4281;45.772;12.852;2022-08-18T15:05:56;6.83;;;1.90;;
8488;SDS011;4281;45.772;12.852;2022-08-18T15:08:29;4.30;;;1.90;;
8488;SDS011;4281;45.772;12.852;2022-08-18T15:13:40;9.07;;;2.30;;
8488;SDS011;4281;45.772;12.852;2022-08-18T15:16:12;5.07;;;2.20;;
8488;SDS011;4281;45.772;12.852;2022-08-18T15:18:41;9.00;;;2.10;;
8488;SDS011;4281;45.772;12.852;2022-08-18T15:21:10;7.67;;;2.50;;
8488;SDS011;4281;45.772;12.852;2022-08-18T15:24:04;6.90;;;1.70;;
8488;SDS011;4281;45.772;12.852;2022-08-18T15:26:51;6.93;;;1.80;;
8488;SDS011;4281;45.772;12.852;2022-08-18T15:29:25;6.23;;;1.90;;
8488;SDS011;4281;45.772;12.852;2022-08-18T15:31:55;7.40;;;1.90;;
8488;SDS011;4281;45.772;12.852;2022-08-18T15:34:31;5.93;;;2.00;;
8488;SDS011;4281;45.772;12.852;2022-08-18T15:37:16;5.23;;;2.00;;
8488;SDS011;4281;45.772;12.852;2022-08-18T15:39:57;5.37;;;1.80;;
8488;SDS011;4281;45.772;12.852;2022-08-18T15:42:28;8.27;;;1.60;;
8488;SDS011;4281;45.772;12.852;2022-08-18T15:45:00;4.97;;;1.97;;
8488;SDS011;4281;45.772;12.852;2022-08-18T15:47:39;7.13;;;2.17;;
8488;SDS011;4281;45.772;12.852;2022-08-18T15:50:08;8.10;;;1.80;;
8488;SDS011;4281;45.772;12.852;2022-08-18T15:52:52;6.83;;;1.90;;
8488;SDS011;4281;45.772;12.852;2022-08-18T15:55:24;3.77;;;1.60;;
8488;SDS011;4281;45.772;12.852;2022-08-18T15:58:01;5.80;;;1.80;;
8488;SDS011;4281;45.772;12.852;2022-08-18T16:00:38;4.90;;;1.97;;
8488;SDS011;4281;45.772;12.852;2022-08-18T16:03:11;5.50;;;1.73;;
8488;SDS011;4281;45.772;12.852;2022-08-18T16:05:45;4.83;;;1.73;;
8488;SDS011;4281;45.772;12.852;2022-08-18T16:08:18;5.70;;;1.93;;
8488;SDS011;4281;45.772;12.852;2022-08-18T16:10:51;7.10;;;2.30;;
8488;SDS011;4281;45.772;12.852;2022-08-18T16:13:34;5.67;;;1.87;;
8488;SDS011;4281;45.772;12.852;2022-08-18T16:16:09;7.03;;;1.90;;
8488;SDS011;4281;45.772;12.852;2022-08-18T16:18:39;4.67;;;1.37;;
8488;SDS011;4281;45.772;12.852;2022-08-18T16:21:08;4.07;;;1.73;;